Time;durP1;ratioP1;P1;durP2;ratioP2;P2;SDS_P1;SDS_P2;PMS_P1;PMS_P2;Temp;Humidity;BMP_temperature;BMP_pressure;BME280_temperature;BME280_humidity;BME280_pressure;Samples;Min_cycle;Max_cycle;Signal;HPM_P1;HPM_P2
2022/08/30 00:01:23;;;;;;;;;;;24.30;53.70;;;;;;6249852;28;20351;-40
2022/08/30 00:04:24;;;;;;;;;;;24.60;53.80;;;;;;6252989;28;19932;-40
2022/08/30 00:07:26;;;;;;;;;;;24.30;53.70;;;;;;6255094;28;21643;-40
2022/08/30 00:10:28;;;;;;;;;;;24.70;53.90;;;;;;6253265;28;20657;-38
2022/08/30 00:13:33;;;;;;;;;;;25.00;54.00;;;;;;6234119;28;19937;-39
2022/08/30 00:16:34;;;;;;;;;;;24.60;53.80;;;;;;6252624;28;20950;-39
2022/08/30 00:19:37;;;;;;;;;;;24.50;53.80;;;;;;6254307;28;19939;-39
2022/08/30 00:22:38;;;;;;;;;;;24.70;53.90;;;;;;6255773;28;19940;-40
2022/08/30 00:25:40;;;;;;;;;;;24.30;53.70;;;;;;6240118;28;19939;-39
2022/08/30 00:28:42;;;;;;;;;;;24.90;54.10;;;;;;6256161;28;19936;-39
2022/08/30 00:31:43;;;;;;;;;;;24.40;53.70;;;;;;6250712;28;19954;-38
2022/08/30 00:34:45;;;;;;;;;;;24.30;53.70;;;;;;6257157;28;19971;-40
2022/08/30 00:37:47;;;;;;;;;;;24.50;53.80;;;;;;6255423;28;20499;-40
2022/08/30 00:40:48;;;;;;;;;;;24.50;53.80;;;;;;6239561;28;20052;-38
2022/08/30 00:43:51;;;;;;;;;;;24.60;53.80;;;;;;6252090;28;20896;-39
2022/08/30 00:46:52;;;;;;;;;;;24.60;53.80;;;;;;6245982;28;20078;-39
2022/08/30 00:49:55;;;;;;;;;;;24.40;53.70;;;;;;6250563;28;19984;-39
2022/08/30 00:52:58;;;;;;;;;;;24.50;53.80;;;;;;6251353;28;20864;-39
2022/08/30 00:56:00;;;;;;;;;;;24.60;53.80;;;;;;6254529;28;19932;-40
2022/08/30 00:59:06;;;;;;;;;;;24.50;53.80;;;;;;6237922;28;19936;-37
2022/08/30 01:02:09;;;;;;;;;;;24.50;53.90;;;;;;6253367;28;19928;-39
2022/08/30 01:05:11;;;;;;;;;;;24.50;53.80;;;;;;6251939;28;19928;-38
2022/08/30 01:08:17;;;;;;;;;;;24.50;53.70;;;;;;6235928;28;19960;-39
2022/08/30 01:11:20;;;;;;;;;;;24.40;53.80;;;;;;6253855;28;19980;-39
2022/08/30 01:14:22;;;;;;;;;;;24.40;53.80;;;;;;6250948;28;19928;-40
2022/08/30 01:17:27;;;;;;;;;;;24.40;53.80;;;;;;6233582;28;19933;-37
2022/08/30 01:20:34;;;;;;;;;;;24.40;53.80;;;;;;6233576;28;20246;-37
2022/08/30 01:23:38;;;;;;;;;;;24.20;53.70;;;;;;6251653;28;20182;-38
2022/08/30 01:26:39;;;;;;;;;;;24.20;53.70;;;;;;6237394;28;19932;-37
2022/08/30 01:29:44;;;;;;;;;;;24.40;53.80;;;;;;6254799;28;20059;-39
2022/08/30 01:32:46;;;;;;;;;;;24.50;53.80;;;;;;6253926;28;19937;-38
2022/08/30 01:35:51;;;;;;;;;;;24.70;53.90;;;;;;6238572;28;19929;-40
2022/08/30 01:38:55;;;;;;;;;;;24.50;53.80;;;;;;6249759;28;19971;-38
2022/08/30 01:41:57;;;;;;;;;;;24.70;54.10;;;;;;6237542;28;20855;-39
2022/08/30 01:44:58;;;;;;;;;;;24.50;53.90;;;;;;6255003;28;19963;-39
2022/08/30 01:48:00;;;;;;;;;;;24.50;53.90;;;;;;6256247;28;19933;-38
2022/08/30 01:51:09;;;;;;;;;;;24.30;53.80;;;;;;6223062;28;20521;-38
2022/08/30 01:54:11;;;;;;;;;;;24.80;54.00;;;;;;6241093;28;19934;-38
2022/08/30 01:57:14;;;;;;;;;;;24.30;53.80;;;;;;6218570;28;20019;-39
2022/08/30 02:00:16;;;;;;;;;;;24.60;53.90;;;;;;6222944;28;19948;-37
2022/08/30 02:03:18;;;;;;;;;;;24.40;53.80;;;;;;6241320;28;20528;-39
2022/08/30 02:06:20;;;;;;;;;;;24.50;53.90;;;;;;6241739;28;19951;-39
2022/08/30 02:09:22;;;;;;;;;;;24.20;53.70;;;;;;6240876;28;20755;-38
2022/08/30 02:12:24;;;;;;;;;;;24.70;54.00;;;;;;6237604;28;20422;-38
2022/08/30 02:15:26;;;;;;;;;;;24.60;54.00;;;;;;6232556;28;20263;-37
2022/08/30 02:18:27;;;;;;;;;;;24.50;53.90;;;;;;6240133;28;19936;-40
2022/08/30 02:21:28;;;;;;;;;;;24.40;53.80;;;;;;6237872;28;19929;-39
2022/08/30 02:24:30;;;;;;;;;;;24.60;54.00;;;;;;6241427;28;20551;-37
2022/08/30 02:27:32;;;;;;;;;;;24.30;53.80;;;;;;6240860;28;20354;-38
2022/08/30 02:30:34;;;;;;;;;;;24.40;53.80;;;;;;6238753;28;20403;-38
2022/08/30 02:33:36;;;;;;;;;;;24.40;53.90;;;;;;6232584;28;20269;-38
2022/08/30 02:36:41;;;;;;;;;;;24.60;54.00;;;;;;6236009;28;19987;-39
2022/08/30 02:39:43;;;;;;;;;;;24.20;53.80;;;;;;6241031;28;20383;-38
2022/08/30 02:42:48;;;;;;;;;;;24.40;53.90;;;;;;6240329;28;19931;-38
2022/08/30 02:45:49;;;;;;;;;;;24.30;53.80;;;;;;6222505;28;20471;-37
2022/08/30 02:48:51;;;;;;;;;;;24.60;54.00;;;;;;6240608;28;19971;-38
2022/08/30 02:51:52;;;;;;;;;;;24.30;53.80;;;;;;6233145;28;19933;-40
2022/08/30 02:54:54;;;;;;;;;;;24.60;54.00;;;;;;6242182;28;19932;-40
2022/08/30 02:57:55;;;;;;;;;;;24.30;54.20;;;;;;6242598;28;20692;-36
2022/08/30 03:00:57;;;;;;;;;;;24.60;54.00;;;;;;6240595;28;19963;-39
2022/08/30 03:04:01;;;;;;;;;;;24.40;53.90;;;;;;6238942;28;20047;-37
2022/08/30 03:07:03;;;;;;;;;;;24.60;54.00;;;;;;6234839;28;19932;-38
2022/08/30 03:10:05;;;;;;;;;;;24.30;53.90;;;;;;6245071;28;20276;-39
2022/08/30 03:13:11;;;;;;;;;;;24.30;53.80;;;;;;6246122;28;19933;-38
2022/08/30 03:16:15;;;;;;;;;;;24.20;53.80;;;;;;6253962;28;19924;-38
2022/08/30 03:19:17;;;;;;;;;;;24.50;53.90;;;;;;6252202;28;20780;-39
2022/08/30 03:22:18;;;;;;;;;;;24.50;53.90;;;;;;6251130;28;19932;-38
2022/08/30 03:25:20;;;;;;;;;;;24.30;53.80;;;;;;6249256;28;20120;-38
2022/08/30 03:28:21;;;;;;;;;;;24.30;53.80;;;;;;6253960;28;19940;-40
2022/08/30 03:31:23;;;;;;;;;;;24.50;54.00;;;;;;6241827;28;20350;-39
2022/08/30 03:34:25;;;;;;;;;;;24.30;53.90;;;;;;6236601;28;19928;-39
2022/08/30 03:37:26;;;;;;;;;;;24.50;54.00;;;;;;6239509;28;20352;-38
2022/08/30 03:40:29;;;;;;;;;;;24.50;53.90;;;;;;6239351;28;20647;-37
2022/08/30 03:43:32;;;;;;;;;;;24.60;54.00;;;;;;6243108;28;19939;-40
2022/08/30 03:46:33;;;;;;;;;;;24.30;53.80;;;;;;6223690;28;20042;-39
2022/08/30 03:49:38;;;;;;;;;;;24.40;53.90;;;;;;6242953;28;20058;-40
2022/08/30 03:52:39;;;;;;;;;;;24.20;53.80;;;;;;6249575;28;19939;-37
2022/08/30 03:55:41;;;;;;;;;;;24.50;53.90;;;;;;6251421;28;19954;-38
2022/08/30 03:58:43;;;;;;;;;;;24.20;53.80;;;;;;6248998;28;19939;-38
2022/08/30 04:01:46;;;;;;;;;;;24.50;53.90;;;;;;6241985;28;19978;-39
2022/08/30 04:04:48;;;;;;;;;;;24.30;53.80;;;;;;6245286;28;19932;-38
2022/08/30 04:07:50;;;;;;;;;;;24.50;53.90;;;;;;6245052;28;20444;-38
2022/08/30 04:10:52;;;;;;;;;;;24.40;53.70;;;;;;6246250;28;20501;-37
2022/08/30 04:13:57;;;;;;;;;;;24.20;53.70;;;;;;6226715;28;20031;-38
2022/08/30 04:17:01;;;;;;;;;;;24.60;53.90;;;;;;6225344;28;20429;-37
2022/08/30 04:20:03;;;;;;;;;;;24.60;53.90;;;;;;6241368;28;20271;-39
2022/08/30 04:23:05;;;;;;;;;;;24.10;53.60;;;;;;6235428;28;19932;-40
2022/08/30 04:26:08;;;;;;;;;;;24.50;53.80;;;;;;6241009;28;19928;-38
2022/08/30 04:29:11;;;;;;;;;;;24.50;53.80;;;;;;6218823;28;20336;-37
2022/08/30 04:32:12;;;;;;;;;;;24.60;53.80;;;;;;6236409;28;19928;-38
2022/08/30 04:35:14;;;;;;;;;;;24.20;53.70;;;;;;6237010;28;19939;-39
2022/08/30 04:38:16;;;;;;;;;;;24.60;53.90;;;;;;6237501;28;20139;-40
2022/08/30 04:41:18;;;;;;;;;;;24.30;53.60;;;;;;6240381;28;20263;-37
2022/08/30 04:44:24;;;;;;;;;;;24.20;53.60;;;;;;6221087;28;20355;-41
2022/08/30 04:47:26;;;;;;;;;;;24.30;53.60;;;;;;6241013;28;20134;-38
2022/08/30 04:50:27;;;;;;;;;;;24.40;53.70;;;;;;6239412;28;20093;-39
2022/08/30 04:53:29;;;;;;;;;;;24.20;53.70;;;;;;6239341;28;19932;-38
2022/08/30 04:56:32;;;;;;;;;;;24.40;53.80;;;;;;6236392;28;20303;-37
2022/08/30 04:59:33;;;;;;;;;;;24.20;53.70;;;;;;6225433;28;19939;-40
2022/08/30 05:02:34;;;;;;;;;;;24.30;53.80;;;;;;6250140;28;21125;-39
2022/08/30 05:05:39;;;;;;;;;;;24.10;53.70;;;;;;6245019;28;19924;-40
2022/08/30 05:08:41;;;;;;;;;;;24.30;53.80;;;;;;6249112;28;20058;-39
2022/08/30 05:11:48;;;;;;;;;;;24.40;53.80;;;;;;6232797;28;20033;-37
2022/08/30 05:14:49;;;;;;;;;;;24.30;53.80;;;;;;6250519;28;19938;-38
2022/08/30 05:17:51;;;;;;;;;;;24.00;53.70;;;;;;6242630;28;20228;-39
2022/08/30 05:21:02;;;;;;;;;;;24.50;54.20;;;;;;6238298;28;20117;-38
2022/08/30 05:24:03;;;;;;;;;;;24.30;53.90;;;;;;6247075;28;19936;-38
2022/08/30 05:27:05;;;;;;;;;;;24.20;53.80;;;;;;6245576;28;19929;-38
2022/08/30 05:30:07;;;;;;;;;;;24.10;53.70;;;;;;6235541;28;19941;-38
2022/08/30 05:33:08;;;;;;;;;;;24.10;53.70;;;;;;6234355;28;20330;-41
2022/08/30 05:36:13;;;;;;;;;;;24.20;53.80;;;;;;6226285;28;20867;-38
2022/08/30 05:39:15;;;;;;;;;;;24.30;53.90;;;;;;6222666;28;19966;-38
2022/08/30 05:42:22;;;;;;;;;;;24.20;53.80;;;;;;6215695;28;20296;-38
2022/08/30 05:45:23;;;;;;;;;;;24.20;53.80;;;;;;6233288;28;19929;-42
2022/08/30 05:48:25;;;;;;;;;;;24.00;53.70;;;;;;6235950;28;19938;-39
2022/08/30 05:51:27;;;;;;;;;;;24.40;53.90;;;;;;6233001;28;19997;-40
2022/08/30 05:54:29;;;;;;;;;;;24.30;53.90;;;;;;6235215;28;20967;-38
2022/08/30 05:57:32;;;;;;;;;;;24.30;53.90;;;;;;6227307;28;19932;-38
2022/08/30 06:00:36;;;;;;;;;;;24.00;53.70;;;;;;6229360;28;19983;-37
2022/08/30 06:03:38;;;;;;;;;;;24.30;53.90;;;;;;6225710;28;20008;-37
2022/08/30 06:06:40;;;;;;;;;;;24.20;53.80;;;;;;6225828;28;19946;-37
2022/08/30 06:09:42;;;;;;;;;;;24.50;54.00;;;;;;6230453;28;20009;-39
2022/08/30 06:12:43;;;;;;;;;;;24.20;53.90;;;;;;6227085;28;19936;-38
2022/08/30 06:15:45;;;;;;;;;;;24.10;54.00;;;;;;6228765;28;20954;-39
2022/08/30 06:18:47;;;;;;;;;;;23.80;54.00;;;;;;6221875;28;19939;-38
2022/08/30 06:21:49;;;;;;;;;;;24.10;54.40;;;;;;6214171;28;20026;-37
2022/08/30 06:24:50;;;;;;;;;;;24.00;54.30;;;;;;6205002;28;19939;-39
2022/08/30 06:27:59;;;;;;;;;;;23.80;54.30;;;;;;6210410;28;19981;-38
2022/08/30 06:31:01;;;;;;;;;;;23.80;54.40;;;;;;6212326;28;20054;-38
2022/08/30 06:34:02;;;;;;;;;;;24.00;54.50;;;;;;6215917;28;19986;-40
2022/08/30 06:37:04;;;;;;;;;;;23.90;54.50;;;;;;6173941;28;21611;-40
2022/08/30 06:40:06;;;;;;;;;;;23.70;54.40;;;;;;6164197;28;20879;-39
2022/08/30 06:43:08;;;;;;;;;;;23.80;54.50;;;;;;6168365;28;19932;-39
2022/08/30 06:46:10;;;;;;;;;;;23.90;54.60;;;;;;6140640;28;20012;-38
2022/08/30 06:49:16;;;;;;;;;;;23.80;54.60;;;;;;6167927;28;20078;-39
2022/08/30 06:52:17;;;;;;;;;;;23.70;54.50;;;;;;6162946;28;20066;-39
2022/08/30 06:55:20;;;;;;;;;;;23.80;54.50;;;;;;6157967;28;20470;-39
2022/08/30 06:58:22;;;;;;;;;;;23.90;54.50;;;;;;6128020;28;19936;-39
2022/08/30 07:01:24;;;;;;;;;;;23.90;54.40;;;;;;6122010;28;19939;-38
2022/08/30 07:04:26;;;;;;;;;;;23.80;54.20;;;;;;6092153;28;19994;-38
2022/08/30 07:07:27;;;;;;;;;;;23.90;54.20;;;;;;6119232;28;19939;-39
2022/08/30 07:10:30;;;;;;;;;;;23.80;54.30;;;;;;6111640;28;19932;-38
2022/08/30 07:13:32;;;;;;;;;;;23.90;54.30;;;;;;6077006;28;22033;-38
2022/08/30 07:16:34;;;;;;;;;;;23.80;54.10;;;;;;6088732;28;19932;-39
2022/08/30 07:19:35;;;;;;;;;;;23.90;54.20;;;;;;6102158;28;19933;-39
2022/08/30 07:22:36;;;;;;;;;;;24.10;54.10;;;;;;6085611;28;20059;-38
2022/08/30 07:25:39;;;;;;;;;;;24.00;54.00;;;;;;6070098;28;19932;-37
2022/08/30 07:28:43;;;;;;;;;;;23.70;53.70;;;;;;6100599;28;21807;-40
2022/08/30 07:31:44;;;;;;;;;;;24.00;53.90;;;;;;6089786;28;20008;-39
2022/08/30 07:34:46;;;;;;;;;;;24.00;53.80;;;;;;6071789;28;20002;-39
2022/08/30 07:37:52;;;;;;;;;;;24.00;53.80;;;;;;6079187;28;19932;-38
2022/08/30 07:40:54;;;;;;;;;;;24.10;53.90;;;;;;6100646;28;19939;-38
2022/08/30 07:43:56;;;;;;;;;;;24.00;53.80;;;;;;6092763;28;21709;-38
2022/08/30 07:46:57;;;;;;;;;;;24.10;53.80;;;;;;6086091;28;19938;-38
2022/08/30 07:49:59;;;;;;;;;;;24.00;53.70;;;;;;6085879;28;20113;-38
2022/08/30 07:53:01;;;;;;;;;;;23.80;53.60;;;;;;6103526;28;20005;-38
2022/08/30 07:56:02;;;;;;;;;;;24.10;53.60;;;;;;6058642;28;19936;-38
2022/08/30 07:59:06;;;;;;;;;;;24.10;53.50;;;;;;6057907;28;20005;-38
2022/08/30 08:02:07;;;;;;;;;;;24.10;53.40;;;;;;6017632;28;19936;-41
2022/08/30 08:05:09;;;;;;;;;;;24.20;53.50;;;;;;6032305;28;21124;-41
2022/08/30 08:08:17;;;;;;;;;;;24.20;53.40;;;;;;6038190;28;20025;-40
2022/08/30 08:11:21;;;;;;;;;;;24.20;53.40;;;;;;6032253;28;19979;-38
2022/08/30 08:14:22;;;;;;;;;;;24.30;53.50;;;;;;6062513;28;19977;-39
2022/08/30 08:17:24;;;;;;;;;;;23.80;53.10;;;;;;6079202;28;19938;-38
2022/08/30 08:20:26;;;;;;;;;;;24.20;53.30;;;;;;6078073;28;20093;-39
2022/08/30 08:23:28;;;;;;;;;;;24.30;53.40;;;;;;6047839;28;20623;-37
2022/08/30 08:26:29;;;;;;;;;;;24.10;53.20;;;;;;6020089;28;19940;-39
2022/08/30 08:29:31;;;;;;;;;;;24.30;53.20;;;;;;6063032;28;19932;-38
2022/08/30 08:32:33;;;;;;;;;;;24.30;53.20;;;;;;6026591;28;19932;-39
2022/08/30 08:35:34;;;;;;;;;;;24.20;53.10;;;;;;6052506;28;19939;-40
2022/08/30 08:38:36;;;;;;;;;;;24.50;53.30;;;;;;6062039;28;19954;-39
2022/08/30 08:41:44;;;;;;;;;;;24.40;53.20;;;;;;6065470;28;19939;-41
2022/08/30 08:44:49;;;;;;;;;;;24.40;53.10;;;;;;6072331;28;19932;-38
2022/08/30 08:47:58;;;;;;;;;;;24.50;53.20;;;;;;6048639;28;20838;-38
2022/08/30 08:54:20;;;;;;;;;;;24.50;53.10;;;;;;6062838;28;19932;-37
2022/08/30 08:57:22;;;;;;;;;;;24.40;53.00;;;;;;6078869;28;19932;-39
2022/08/30 09:00:28;;;;;;;;;;;24.40;53.10;;;;;;6071859;28;19939;-37
2022/08/30 09:03:29;;;;;;;;;;;24.50;53.00;;;;;;6054609;28;21354;-38
2022/08/30 09:06:39;;;;;;;;;;;24.50;52.80;;;;;;6014134;28;20074;-38
2022/08/30 09:09:46;;;;;;;;;;;24.60;52.80;;;;;;6066637;28;19932;-38
2022/08/30 09:12:51;;;;;;;;;;;24.50;52.70;;;;;;6058006;28;19938;-40
2022/08/30 09:15:54;;;;;;;;;;;24.50;52.70;;;;;;6046738;28;19932;-38
2022/08/30 09:18:56;;;;;;;;;;;24.50;52.60;;;;;;6081820;28;19932;-39
2022/08/30 09:21:58;;;;;;;;;;;24.60;52.60;;;;;;6064277;28;21011;-42
2022/08/30 09:25:04;;;;;;;;;;;24.70;52.60;;;;;;6061647;28;20028;-38
2022/08/30 09:28:09;;;;;;;;;;;24.90;52.80;;;;;;6074698;28;19990;-38
2022/08/30 09:31:18;;;;;;;;;;;24.80;52.60;;;;;;6083491;28;20033;-40
2022/08/30 09:34:21;;;;;;;;;;;24.90;52.60;;;;;;6000497;28;20010;-38
2022/08/30 09:37:24;;;;;;;;;;;24.70;52.30;;;;;;6015917;28;20062;-40
2022/08/30 09:40:28;;;;;;;;;;;24.80;52.30;;;;;;6000835;28;19939;-39
2022/08/30 09:43:31;;;;;;;;;;;24.90;52.30;;;;;;6022074;28;19936;-38
2022/08/30 09:46:33;;;;;;;;;;;24.80;52.10;;;;;;6060702;28;19939;-39
2022/08/30 09:49:36;;;;;;;;;;;24.90;52.20;;;;;;6073705;28;20037;-38
2022/08/30 09:52:41;;;;;;;;;;;25.10;52.30;;;;;;6084159;28;19978;-39
2022/08/30 09:55:51;;;;;;;;;;;25.00;52.20;;;;;;6070110;28;19939;-38
2022/08/30 09:58:58;;;;;;;;;;;25.00;52.20;;;;;;6044876;28;19939;-38
2022/08/30 10:02:03;;;;;;;;;;;24.90;52.10;;;;;;6047501;28;19936;-39
2022/08/30 10:05:08;;;;;;;;;;;25.20;52.50;;;;;;6052290;28;21075;-40
2022/08/30 10:08:14;;;;;;;;;;;24.80;52.10;;;;;;6067439;28;21258;-39
2022/08/30 10:11:22;;;;;;;;;;;25.00;52.10;;;;;;6052928;28;19932;-39
2022/08/30 10:14:33;;;;;;;;;;;25.10;52.20;;;;;;6098340;28;19932;-39
2022/08/30 10:17:42;;;;;;;;;;;25.10;52.20;;;;;;6089103;28;20022;-39
2022/08/30 10:20:49;;;;;;;;;;;25.10;52.20;;;;;;6064291;28;21266;-39
2022/08/30 10:23:52;;;;;;;;;;;25.10;52.20;;;;;;6104710;28;19939;-39
2022/08/30 10:26:57;;;;;;;;;;;25.10;52.20;;;;;;6116711;28;19939;-39
2022/08/30 10:30:01;;;;;;;;;;;25.10;52.10;;;;;;6121642;28;20058;-40
2022/08/30 10:33:05;;;;;;;;;;;25.30;52.20;;;;;;6098625;28;20529;-40
2022/08/30 10:36:09;;;;;;;;;;;25.10;52.10;;;;;;6121743;28;19932;-39
2022/08/30 10:39:15;;;;;;;;;;;25.10;52.10;;;;;;6127250;28;19975;-38
2022/08/30 10:42:21;;;;;;;;;;;25.40;52.30;;;;;;6154173;28;19939;-40
2022/08/30 10:45:24;;;;;;;;;;;25.20;52.20;;;;;;6162292;28;19932;-39
2022/08/30 10:48:29;;;;;;;;;;;25.20;52.10;;;;;;6147871;28;21135;-39
2022/08/30 10:51:41;;;;;;;;;;;25.30;52.20;;;;;;6147524;28;20185;-44
2022/08/30 10:54:45;;;;;;;;;;;25.00;52.00;;;;;;6148343;28;19932;-38
2022/08/30 10:57:50;;;;;;;;;;;25.20;52.10;;;;;;6166914;28;19979;-41
2022/08/30 11:00:59;;;;;;;;;;;25.20;52.10;;;;;;6130574;28;20025;-40
2022/08/30 11:04:16;;;;;;;;;;;25.10;52.00;;;;;;6166210;28;19932;-39
2022/08/30 11:07:25;;;;;;;;;;;25.30;52.10;;;;;;6162349;28;20006;-39
2022/08/30 11:10:34;;;;;;;;;;;25.10;52.00;;;;;;6187470;28;20134;-39
2022/08/30 11:13:37;;;;;;;;;;;25.30;52.10;;;;;;6189626;28;19933;-39
2022/08/30 11:16:40;;;;;;;;;;;25.20;52.20;;;;;;6168582;28;19938;-39
2022/08/30 11:19:44;;;;;;;;;;;25.40;52.30;;;;;;6150771;28;20102;-42
2022/08/30 11:22:55;;;;;;;;;;;25.10;52.10;;;;;;6162274;28;20378;-39
2022/08/30 11:25:59;;;;;;;;;;;25.30;52.20;;;;;;6170928;28;19936;-38
2022/08/30 11:29:04;;;;;;;;;;;25.30;52.10;;;;;;6143205;28;19940;-39
2022/08/30 11:32:22;;;;;;;;;;;25.10;51.90;;;;;;6152517;28;19932;-37
2022/08/30 11:35:40;;;;;;;;;;;25.30;52.00;;;;;;6132682;28;19936;-40
2022/08/30 11:38:57;;;;;;;;;;;25.40;52.00;;;;;;6154583;28;19977;-38
2022/08/30 11:42:09;;;;;;;;;;;25.30;51.90;;;;;;6151335;28;19932;-38
2022/08/30 11:45:26;;;;;;;;;;;25.40;51.90;;;;;;6112585;28;19938;-39
2022/08/30 11:48:44;;;;;;;;;;;25.30;51.80;;;;;;6075944;28;20043;-38
2022/08/30 11:52:03;;;;;;;;;;;25.50;52.00;;;;;;6078213;28;20009;-40
2022/08/30 11:55:27;;;;;;;;;;;25.50;51.90;;;;;;6069902;28;21500;-38
2022/08/30 11:58:35;;;;;;;;;;;25.60;52.00;;;;;;6063999;28;19940;-38
2022/08/30 12:01:38;;;;;;;;;;;25.40;51.90;;;;;;6049589;28;21094;-38
2022/08/30 12:04:55;;;;;;;;;;;25.60;52.10;;;;;;6076728;28;19961;-39
2022/08/30 12:07:57;;;;;;;;;;;25.50;52.00;;;;;;6042923;28;19940;-38
2022/08/30 12:11:00;;;;;;;;;;;25.30;51.90;;;;;;6072460;28;20017;-41
2022/08/30 12:14:03;;;;;;;;;;;25.60;52.10;;;;;;6059176;28;20023;-39
2022/08/30 12:20:28;;;;;;;;;;;25.50;52.00;;;;;;5991530;28;19932;-38
2022/08/30 12:23:34;;;;;;;;;;;25.20;51.80;;;;;;6020508;28;19932;-39
2022/08/30 12:26:37;;;;;;;;;;;25.30;51.80;;;;;;6026137;28;19979;-39
2022/08/30 12:29:49;;;;;;;;;;;25.50;52.00;;;;;;6036177;28;20017;-39
2022/08/30 12:32:51;;;;;;;;;;;25.60;52.10;;;;;;6021692;28;20088;-39
2022/08/30 12:35:53;;;;;;;;;;;25.50;52.00;;;;;;5995751;28;19939;-39
2022/08/30 12:39:03;;;;;;;;;;;25.70;52.20;;;;;;6033321;28;20500;-40
2022/08/30 12:42:12;;;;;;;;;;;25.60;52.10;;;;;;6041063;28;19940;-40
2022/08/30 12:45:20;;;;;;;;;;;25.60;52.10;;;;;;6026990;28;20002;-40
2022/08/30 12:48:26;;;;;;;;;;;25.70;52.40;;;;;;6026859;28;19939;-39
2022/08/30 12:51:37;;;;;;;;;;;25.70;52.30;;;;;;6071403;28;19932;-40
2022/08/30 12:54:39;;;;;;;;;;;25.60;52.10;;;;;;6048317;28;19966;-39
2022/08/30 12:57:53;;;;;;;;;;;25.60;52.20;;;;;;6081513;28;19933;-39
2022/08/30 13:01:16;;;;;;;;;;;25.60;52.10;;;;;;6069045;28;19979;-39
2022/08/30 13:04:21;;;;;;;;;;;25.50;52.10;;;;;;6043250;28;19933;-39
2022/08/30 13:07:23;;;;;;;;;;;25.60;52.20;;;;;;6023952;28;20977;-40
2022/08/30 13:10:25;;;;;;;;;;;25.70;52.40;;;;;;6030459;28;19932;-41
2022/08/30 13:13:30;;;;;;;;;;;25.40;52.10;;;;;;6024067;28;19939;-40
2022/08/30 13:16:35;;;;;;;;;;;25.60;52.30;;;;;;6024259;28;21227;-40
2022/08/30 13:19:40;;;;;;;;;;;25.50;52.20;;;;;;6067356;28;19939;-40
2022/08/30 13:22:58;;;;;;;;;;;25.70;52.40;;;;;;6043151;28;19932;-39
2022/08/30 13:26:01;;;;;;;;;;;25.60;52.40;;;;;;6061605;28;20730;-40
2022/08/30 13:29:04;;;;;;;;;;;25.50;52.40;;;;;;6050985;28;20059;-40
2022/08/30 13:32:12;;;;;;;;;;;25.60;52.40;;;;;;6047068;28;20279;-40
2022/08/30 13:35:14;;;;;;;;;;;25.50;52.40;;;;;;6069517;28;19997;-39
2022/08/30 13:38:16;;;;;;;;;;;25.60;52.50;;;;;;6046651;28;21401;-40
2022/08/30 13:41:19;;;;;;;;;;;25.60;52.40;;;;;;6074039;28;19932;-40
2022/08/30 13:44:20;;;;;;;;;;;25.50;52.40;;;;;;6069364;28;22106;-41
2022/08/30 13:47:22;;;;;;;;;;;25.50;52.40;;;;;;6077641;28;19936;-41
2022/08/30 13:50:41;;;;;;;;;;;25.70;52.50;;;;;;6059723;28;19936;-40
2022/08/30 13:53:43;;;;;;;;;;;25.50;52.40;;;;;;6051986;28;20224;-40
2022/08/30 13:57:00;;;;;;;;;;;25.50;52.40;;;;;;6049951;28;21326;-40
2022/08/30 14:00:04;;;;;;;;;;;25.60;52.50;;;;;;6050938;28;21067;-44
2022/08/30 14:03:13;;;;;;;;;;;25.50;52.40;;;;;;6046994;28;19932;-41
2022/08/30 14:06:15;;;;;;;;;;;25.50;52.60;;;;;;6010871;28;20021;-40
2022/08/30 14:09:35;;;;;;;;;;;25.50;52.50;;;;;;5967064;28;19932;-40
2022/08/30 14:12:37;;;;;;;;;;;25.50;52.50;;;;;;6036864;28;19938;-40
2022/08/30 14:15:54;;;;;;;;;;;25.40;52.40;;;;;;6023070;28;21190;-41
2022/08/30 14:19:16;;;;;;;;;;;25.60;52.50;;;;;;6027947;28;22852;-40
2022/08/30 14:22:19;;;;;;;;;;;25.60;52.50;;;;;;6051206;28;20030;-40
2022/08/30 14:25:22;;;;;;;;;;;25.80;52.70;;;;;;6066635;28;21094;-40
2022/08/30 14:28:25;;;;;;;;;;;25.70;52.70;;;;;;6075483;28;19938;-41
2022/08/30 14:31:28;;;;;;;;;;;25.60;52.50;;;;;;6066819;28;19936;-40
2022/08/30 14:34:30;;;;;;;;;;;25.60;52.60;;;;;;6028564;28;20377;-40
2022/08/30 14:37:34;;;;;;;;;;;25.50;52.60;;;;;;6067323;28;19983;-40
2022/08/30 14:40:36;;;;;;;;;;;25.40;52.50;;;;;;6066587;28;19932;-41
2022/08/30 14:43:39;;;;;;;;;;;25.60;52.70;;;;;;6082432;28;19933;-40
2022/08/30 14:46:40;;;;;;;;;;;25.60;52.60;;;;;;6089615;28;19932;-41
2022/08/30 14:49:42;;;;;;;;;;;25.50;52.60;;;;;;6095588;28;19978;-40
2022/08/30 14:52:45;;;;;;;;;;;25.40;52.50;;;;;;6085275;28;19938;-40
2022/08/30 14:55:47;;;;;;;;;;;25.60;52.60;;;;;;6069027;28;19932;-41
2022/08/30 14:58:48;;;;;;;;;;;25.50;52.60;;;;;;6089148;28;20053;-39
2022/08/30 15:01:50;;;;;;;;;;;25.50;52.70;;;;;;6094463;28;19939;-40
2022/08/30 15:04:52;;;;;;;;;;;25.70;52.70;;;;;;6054910;28;20070;-40
2022/08/30 15:07:55;;;;;;;;;;;25.60;52.60;;;;;;6075888;28;21415;-40
2022/08/30 15:10:57;;;;;;;;;;;25.60;52.60;;;;;;6065328;28;20072;-40
2022/08/30 15:13:59;;;;;;;;;;;25.50;52.60;;;;;;6082480;28;20200;-40
2022/08/30 15:17:03;;;;;;;;;;;25.30;52.50;;;;;;6080408;28;19943;-41
2022/08/30 15:20:04;;;;;;;;;;;25.70;52.70;;;;;;6060658;28;20565;-41
2022/08/30 15:23:12;;;;;;;;;;;25.60;52.70;;;;;;6066961;28;20070;-40
2022/08/30 15:26:18;;;;;;;;;;;25.50;52.60;;;;;;6079553;28;19937;-40
2022/08/30 15:29:19;;;;;;;;;;;25.70;52.80;;;;;;6109151;28;20896;-40
2022/08/30 15:32:21;;;;;;;;;;;25.70;52.70;;;;;;6114410;28;19932;-40
2022/08/30 15:35:23;;;;;;;;;;;25.60;52.70;;;;;;6114779;28;19932;-43
2022/08/30 15:38:25;;;;;;;;;;;25.60;52.80;;;;;;6129854;28;20054;-40
2022/08/30 15:41:27;;;;;;;;;;;25.60;52.70;;;;;;6126622;28;19936;-43
2022/08/30 15:44:29;;;;;;;;;;;25.60;52.70;;;;;;6089241;28;20309;-40
2022/08/30 15:47:31;;;;;;;;;;;25.80;52.80;;;;;;6069543;28;20868;-40
2022/08/30 15:50:32;;;;;;;;;;;25.70;52.70;;;;;;6085485;28;19955;-40
2022/08/30 15:53:37;;;;;;;;;;;25.80;53.00;;;;;;6110444;28;21221;-40
2022/08/30 15:56:39;;;;;;;;;;;25.60;52.70;;;;;;6102210;28;19936;-41
2022/08/30 15:59:40;;;;;;;;;;;25.80;52.90;;;;;;6102638;28;20402;-39
2022/08/30 16:02:42;;;;;;;;;;;25.70;52.70;;;;;;6105465;28;20967;-39
2022/08/30 16:05:44;;;;;;;;;;;25.70;52.70;;;;;;6075034;28;19955;-39
2022/08/30 16:08:47;;;;;;;;;;;25.70;52.70;;;;;;6117358;28;19932;-42
2022/08/30 16:11:49;;;;;;;;;;;25.60;52.70;;;;;;6097982;28;20188;-41
2022/08/30 16:14:50;;;;;;;;;;;25.50;52.60;;;;;;6124216;28;20733;-40
2022/08/30 16:17:52;;;;;;;;;;;25.50;52.60;;;;;;6155850;28;20298;-41
2022/08/30 16:21:03;;;;;;;;;;;25.60;52.70;;;;;;6156682;28;20150;-41
2022/08/30 16:24:07;;;;;;;;;;;25.60;52.70;;;;;;6178354;28;19932;-40
2022/08/30 16:27:11;;;;;;;;;;;25.50;52.60;;;;;;6144965;28;20799;-40
2022/08/30 16:30:14;;;;;;;;;;;25.70;52.70;;;;;;6148917;28;20224;-40
2022/08/30 16:33:16;;;;;;;;;;;25.90;52.90;;;;;;6162976;28;20136;-40
2022/08/30 16:36:17;;;;;;;;;;;25.60;52.70;;;;;;6195688;28;19932;-40
2022/08/30 16:39:23;;;;;;;;;;;25.60;52.70;;;;;;6175458;28;20114;-41
2022/08/30 16:42:24;;;;;;;;;;;25.50;52.70;;;;;;6181611;28;19932;-42
2022/08/30 16:45:25;;;;;;;;;;;25.70;52.70;;;;;;6192073;28;19932;-40
2022/08/30 16:48:33;;;;;;;;;;;25.70;52.90;;;;;;6191843;28;19993;-41
2022/08/30 16:51:37;;;;;;;;;;;25.70;52.80;;;;;;6191872;28;19932;-40
2022/08/30 16:54:39;;;;;;;;;;;25.80;52.80;;;;;;6185710;28;19938;-40
2022/08/30 16:57:41;;;;;;;;;;;25.70;52.70;;;;;;6195383;28;20066;-41
2022/08/30 17:00:46;;;;;;;;;;;25.70;53.30;;;;;;6187116;28;19932;-41
2022/08/30 17:03:49;;;;;;;;;;;25.70;52.70;;;;;;6171141;28;19940;-41
2022/08/30 17:06:51;;;;;;;;;;;25.70;52.80;;;;;;6210464;28;20382;-40
2022/08/30 17:09:53;;;;;;;;;;;25.70;52.70;;;;;;6206678;28;20042;-41
2022/08/30 17:12:55;;;;;;;;;;;25.50;52.60;;;;;;6192377;28;19986;-40
2022/08/30 17:15:57;;;;;;;;;;;25.70;52.70;;;;;;6209263;28;19959;-40
2022/08/30 17:18:59;;;;;;;;;;;25.70;52.70;;;;;;6212036;28;20463;-40
2022/08/30 17:22:02;;;;;;;;;;;25.70;52.70;;;;;;6218265;28;19997;-41
2022/08/30 17:25:04;;;;;;;;;;;25.70;52.70;;;;;;6223686;28;19935;-39
2022/08/30 17:28:06;;;;;;;;;;;25.80;52.90;;;;;;6227706;28;19971;-41
2022/08/30 17:31:08;;;;;;;;;;;25.60;52.70;;;;;;6215936;28;20974;-41
2022/08/30 17:34:12;;;;;;;;;;;25.70;52.70;;;;;;6219636;28;20081;-42
2022/08/30 17:37:14;;;;;;;;;;;25.70;52.70;;;;;;6211737;28;20774;-39
2022/08/30 17:40:19;;;;;;;;;;;26.10;53.00;;;;;;6216605;28;20383;-41
2022/08/30 17:43:21;;;;;;;;;;;25.70;52.70;;;;;;6218270;28;20164;-40
2022/08/30 17:46:22;;;;;;;;;;;25.70;52.80;;;;;;6212963;28;20617;-40
2022/08/30 17:49:26;;;;;;;;;;;25.80;52.80;;;;;;6213421;28;20243;-41
2022/08/30 17:52:28;;;;;;;;;;;25.80;52.90;;;;;;6209150;28;20062;-40
2022/08/30 17:55:33;;;;;;;;;;;25.80;52.80;;;;;;6232410;28;19932;-41